General Juan N Alvarez International Airport
MMAA : now visible

Airfield :











YOU CAN JOIN US ON...

 
LOGIN :

Register | Disclaimer

   EN    FR    IT 

 









Legend :    VFR   Marginal VFR   IFR   Intensive IFR   Very Intensive IFR
Visi :
Ceiling :
>= 8 km
>= 3000ft
5 to 8 km
1000 to 3000 ft
1500m to 5 km
500 to 1000 ft
800 to 1500m
200 to 500 ft
< 800m
< 200 ft
Symbols :   Thunderstorms  Fog  Heavy snow  Heavy precipitations  Wind > 20 kt






- Airport Elevation : 16 ft
- IATA code : ACA


MMAA - General Juan N Alvarez International

CURRENT METAR :
  • 240440Z 26008KT 5SM FEW120 BKN300 26/20 A2988 RMK 8/031 HZY

EXPIRED METARs :
  • 240350Z 27005KT 5SM SKC 26/23 A2987 RMK HZY ISOL CI
  • 240242Z 25006KT 6SM SCT300 27/23 A2984 RMK SLP099 52017 904 8/001 HZY
  • 240143Z 26005KT 6SM SCT300 27/23 A2981 RMK 8/001 HZY AC W
  • 240042Z 26005KT 6SM BKN300 27/24 A2980 RMK 8/001 HZY FU NE

TAF TAF MMAA
Valid from the 24 at 06:00 until the 25 at 06:00 UTC


240529Z 2406/2506 23005KT 5SM HZ SCT120 SCT300 TX29/2421Z TN22/2413Z
FM241500 24010KT P6SM SCT300
FM250000 27005KT 6SM HZ SKC
MMFR FIR / North America



MET'MAP, your aeronautical weather chart ! - Copyright ORBIFLY December 2007 - Disclaimer

ORBIFLY MET'MAP TEAM :

Programming & Development : Alexandra Zaïnal
Original concept : Baudouin d'Aumeries
Technical & hardware support : Manuel Goepfert
Assistance : Marc-Olivier Méhu




SOURCES & CREDITS :

   NOAA       Earth
Advisory